sensor_id;sensor_type;location;lat;lon;timestamp;pressure;altitude;pressure_sealevel;temperature;humidity
9261;BME280;4667;42.726;23.252;2023-05-09T00:00:52;95493.44;;;13.57;nan
9261;BME280;4667;42.726;23.252;2023-05-09T00:03:19;95499.69;;;13.50;nan
9261;BME280;4667;42.726;23.252;2023-05-09T00:05:46;95496.25;;;13.42;nan
9261;BME280;4667;42.726;23.252;2023-05-09T00:08:13;95490.44;;;13.40;nan
9261;BME280;4667;42.726;23.252;2023-05-09T00:10:40;95488.13;;;13.39;nan
9261;BME280;4667;42.726;23.252;2023-05-09T00:13:08;95489.66;;;13.40;nan
9261;BME280;4667;42.726;23.252;2023-05-09T00:15:35;95482.31;;;13.33;nan
9261;BME280;4667;42.726;23.252;2023-05-09T00:18:02;95475.72;;;13.34;nan
9261;BME280;4667;42.726;23.252;2023-05-09T00:20:29;95476.47;;;13.35;nan
9261;BME280;4667;42.726;23.252;2023-05-09T00:22:58;95478.78;;;13.40;nan
9261;BME280;4667;42.726;23.252;2023-05-09T00:25:25;95478.34;;;13.45;nan
9261;BME280;4667;42.726;23.252;2023-05-09T00:27:51;95469.81;;;13.46;nan
9261;BME280;4667;42.726;23.252;2023-05-09T00:30:20;95475.94;;;13.54;nan
9261;BME280;4667;42.726;23.252;2023-05-09T00:32:46;95471.63;;;13.60;nan
9261;BME280;4667;42.726;23.252;2023-05-09T00:35:13;95475.47;;;13.66;nan
9261;BME280;4667;42.726;23.252;2023-05-09T00:37:40;95469.97;;;13.73;nan
9261;BME280;4667;42.726;23.252;2023-05-09T00:40:07;95476.50;;;13.83;nan
9261;BME280;4667;42.726;23.252;2023-05-09T00:42:34;95469.88;;;13.87;nan
9261;BME280;4667;42.726;23.252;2023-05-09T00:45:01;95465.56;;;13.94;nan
9261;BME280;4667;42.726;23.252;2023-05-09T00:47:30;95464.28;;;14.02;nan
9261;BME280;4667;42.726;23.252;2023-05-09T00:49:57;95463.06;;;14.06;nan
9261;BME280;4667;42.726;23.252;2023-05-09T00:52:24;95468.50;;;14.10;nan
9261;BME280;4667;42.726;23.252;2023-05-09T00:54:51;95471.19;;;14.13;nan
9261;BME280;4667;42.726;23.252;2023-05-09T00:57:18;95468.06;;;14.15;nan
9261;BME280;4667;42.726;23.252;2023-05-09T00:59:45;95465.28;;;14.22;nan
9261;BME280;4667;42.726;23.252;2023-05-09T01:02:12;95474.56;;;14.28;nan
9261;BME280;4667;42.726;23.252;2023-05-09T01:04:40;95470.22;;;14.38;nan
9261;BME280;4667;42.726;23.252;2023-05-09T01:07:15;95470.56;;;14.36;nan
9261;BME280;4667;42.726;23.252;2023-05-09T01:09:49;95470.19;;;14.41;nan
9261;BME280;4667;42.726;23.252;2023-05-09T01:12:25;95469.34;;;14.48;nan
9261;BME280;4667;42.726;23.252;2023-05-09T01:14:59;95465.50;;;14.42;nan
9261;BME280;4667;42.726;23.252;2023-05-09T01:17:33;95466.25;;;14.42;nan
9261;BME280;4667;42.726;23.252;2023-05-09T01:20:11;95469.44;;;14.37;nan
9261;BME280;4667;42.726;23.252;2023-05-09T01:22:45;95474.13;;;14.33;nan
9261;BME280;4667;42.726;23.252;2023-05-09T01:25:35;95469.81;;;14.39;nan
9261;BME280;4667;42.726;23.252;2023-05-09T01:28:12;95465.19;;;14.32;nan
9261;BME280;4667;42.726;23.252;2023-05-09T01:30:41;95467.50;;;14.34;nan
9261;BME280;4667;42.726;23.252;2023-05-09T01:33:12;95465.56;;;14.35;nan
9261;BME280;4667;42.726;23.252;2023-05-09T01:35:43;95477.28;;;14.28;nan
9261;BME280;4667;42.726;23.252;2023-05-09T01:38:16;95470.28;;;14.27;nan
9261;BME280;4667;42.726;23.252;2023-05-09T01:40:44;95472.78;;;14.11;nan
9261;BME280;4667;42.726;23.252;2023-05-09T01:43:14;95474.34;;;14.12;nan
9261;BME280;4667;42.726;23.252;2023-05-09T01:45:43;95476.75;;;14.03;nan
9261;BME280;4667;42.726;23.252;2023-05-09T01:48:12;95476.69;;;14.06;nan
9261;BME280;4667;42.726;23.252;2023-05-09T01:50:40;95489.19;;;14.04;nan
9261;BME280;4667;42.726;23.252;2023-05-09T01:53:09;95482.91;;;14.07;nan
9261;BME280;4667;42.726;23.252;2023-05-09T01:55:38;95486.81;;;14.09;nan
9261;BME280;4667;42.726;23.252;2023-05-09T01:58:07;95487.59;;;14.06;nan
9261;BME280;4667;42.726;23.252;2023-05-09T02:00:35;95486.41;;;14.07;nan
9261;BME280;4667;42.726;23.252;2023-05-09T02:03:04;95493.81;;;14.07;nan
9261;BME280;4667;42.726;23.252;2023-05-09T02:05:32;95480.59;;;14.09;nan
9261;BME280;4667;42.726;23.252;2023-05-09T02:07:59;95480.59;;;14.09;nan
9261;BME280;4667;42.726;23.252;2023-05-09T02:10:26;95486.91;;;13.99;nan
9261;BME280;4667;42.726;23.252;2023-05-09T02:12:54;95486.06;;;14.05;nan
9261;BME280;4667;42.726;23.252;2023-05-09T02:15:21;95489.91;;;14.08;nan
9261;BME280;4667;42.726;23.252;2023-05-09T02:17:48;95492.28;;;14.06;nan
9261;BME280;4667;42.726;23.252;2023-05-09T02:20:16;95490.75;;;14.05;nan
9261;BME280;4667;42.726;23.252;2023-05-09T02:22:43;95479.09;;;14.01;nan
9261;BME280;4667;42.726;23.252;2023-05-09T02:25:13;95479.16;;;13.94;nan
9261;BME280;4667;42.726;23.252;2023-05-09T02:27:42;95485.38;;;13.94;nan
9261;BME280;4667;42.726;23.252;2023-05-09T02:30:14;95484.63;;;13.94;nan
9261;BME280;4667;42.726;23.252;2023-05-09T02:32:44;95478.38;;;13.93;nan
9261;BME280;4667;42.726;23.252;2023-05-09T02:35:13;95484.56;;;13.97;nan
9261;BME280;4667;42.726;23.252;2023-05-09T02:37:43;95483.03;;;13.96;nan
9261;BME280;4667;42.726;23.252;2023-05-09T02:40:10;95486.47;;;14.04;nan
9261;BME280;4667;42.726;23.252;2023-05-09T02:42:37;95480.63;;;14.02;nan
9261;BME280;4667;42.726;23.252;2023-05-09T02:45:05;95475.59;;;14.00;nan
9261;BME280;4667;42.726;23.252;2023-05-09T02:47:34;95477.97;;;13.98;nan
9261;BME280;4667;42.726;23.252;2023-05-09T02:50:01;95485.41;;;13.90;nan
9261;BME280;4667;42.726;23.252;2023-05-09T02:52:28;95491.63;;;13.91;nan
9261;BME280;4667;42.726;23.252;2023-05-09T02:54:56;95483.84;;;13.93;nan
9261;BME280;4667;42.726;23.252;2023-05-09T02:57:23;95482.66;;;13.94;nan
9261;BME280;4667;42.726;23.252;2023-05-09T02:59:50;95481.13;;;13.89;nan
9261;BME280;4667;42.726;23.252;2023-05-09T03:02:19;95479.66;;;13.81;nan
9261;BME280;4667;42.726;23.252;2023-05-09T03:04:45;95487.78;;;13.85;nan
9261;BME280;4667;42.726;23.252;2023-05-09T03:07:12;95493.97;;;13.89;nan
9261;BME280;4667;42.726;23.252;2023-05-09T03:09:39;95502.22;;;13.78;nan
9261;BME280;4667;42.726;23.252;2023-05-09T03:12:07;95501.09;;;13.72;nan
9261;BME280;4667;42.726;23.252;2023-05-09T03:14:34;95499.97;;;13.70;nan
9261;BME280;4667;42.726;23.252;2023-05-09T03:17:01;95500.41;;;13.61;nan
9261;BME280;4667;42.726;23.252;2023-05-09T03:19:27;95504.75;;;13.52;nan
9261;BME280;4667;42.726;23.252;2023-05-09T03:21:54;95509.03;;;13.49;nan
9261;BME280;4667;42.726;23.252;2023-05-09T03:24:21;95520.31;;;13.51;nan
9261;BME280;4667;42.726;23.252;2023-05-09T03:26:49;95515.22;;;13.53;nan
9261;BME280;4667;42.726;23.252;2023-05-09T03:29:18;95521.50;;;13.43;nan
9261;BME280;4667;42.726;23.252;2023-05-09T03:31:45;95528.94;;;13.39;nan
9261;BME280;4667;42.726;23.252;2023-05-09T03:34:12;95524.63;;;13.45;nan
9261;BME280;4667;42.726;23.252;2023-05-09T03:36:40;95521.09;;;13.52;nan
9261;BME280;4667;42.726;23.252;2023-05-09T03:39:07;95523.00;;;13.55;nan
9261;BME280;4667;42.726;23.252;2023-05-09T03:41:34;95532.31;;;13.57;nan
9261;BME280;4667;42.726;23.252;2023-05-09T03:44:01;95527.22;;;13.59;nan
9261;BME280;4667;42.726;23.252;2023-05-09T03:46:30;95529.56;;;13.64;nan
9261;BME280;4667;42.726;23.252;2023-05-09T03:48:56;95536.91;;;13.67;nan
9261;BME280;4667;42.726;23.252;2023-05-09T03:51:23;95530.34;;;13.61;nan
9261;BME280;4667;42.726;23.252;2023-05-09T03:53:50;95529.94;;;13.63;nan
9261;BME280;4667;42.726;23.252;2023-05-09T03:56:17;95526.06;;;13.60;nan
9261;BME280;4667;42.726;23.252;2023-05-09T03:58:45;95533.88;;;13.58;nan
9261;BME280;4667;42.726;23.252;2023-05-09T04:01:14;95533.50;;;13.56;nan
9261;BME280;4667;42.726;23.252;2023-05-09T04:03:49;95526.88;;;13.57;nan
9261;BME280;4667;42.726;23.252;2023-05-09T04:06:17;95515.53;;;13.66;nan
9261;BME280;4667;42.726;23.252;2023-05-09T04:08:45;95523.69;;;13.69;nan
9261;BME280;4667;42.726;23.252;2023-05-09T04:11:12;95525.13;;;13.84;nan
9261;BME280;4667;42.726;23.252;2023-05-09T04:13:38;95522.78;;;13.86;nan
9261;BME280;4667;42.726;23.252;2023-05-09T04:16:05;95527.00;;;13.95;nan
9261;BME280;4667;42.726;23.252;2023-05-09T04:18:32;95532.72;;;14.07;nan
9261;BME280;4667;42.726;23.252;2023-05-09T04:21:09;95537.88;;;13.98;nan
9261;BME280;4667;42.726;23.252;2023-05-09T04:23:36;95539.44;;;13.99;nan
9261;BME280;4667;42.726;23.252;2023-05-09T04:26:04;95539.78;;;14.05;nan
9261;BME280;4667;42.726;23.252;2023-05-09T04:28:31;95541.81;;;13.90;nan
9261;BME280;4667;42.726;23.252;2023-05-09T04:30:58;95538.31;;;13.89;nan
9261;BME280;4667;42.726;23.252;2023-05-09T04:33:25;95545.69;;;13.89;nan
9261;BME280;4667;42.726;23.252;2023-05-09T04:35:53;95558.16;;;13.94;nan
9261;BME280;4667;42.726;23.252;2023-05-09T04:38:21;95552.25;;;13.99;nan
9261;BME280;4667;42.726;23.252;2023-05-09T04:40:48;95552.22;;;14.06;nan
9261;BME280;4667;42.726;23.252;2023-05-09T04:43:15;95557.59;;;14.13;nan
9261;BME280;4667;42.726;23.252;2023-05-09T04:48:09;95542.13;;;14.03;nan
9261;BME280;4667;42.726;23.252;2023-05-09T04:50:36;95552.63;;;14.01;nan
9261;BME280;4667;42.726;23.252;2023-05-09T04:53:03;95547.59;;;13.99;nan
9261;BME280;4667;42.726;23.252;2023-05-09T04:55:31;95556.94;;;13.95;nan
9261;BME280;4667;42.726;23.252;2023-05-09T04:57:58;95554.13;;;14.09;nan
9261;BME280;4667;42.726;23.252;2023-05-09T05:00:25;95547.59;;;13.99;nan
9261;BME280;4667;42.726;23.252;2023-05-09T05:02:52;95548.34;;;14.03;nan
9261;BME280;4667;42.726;23.252;2023-05-09T05:05:19;95550.63;;;14.08;nan
9261;BME280;4667;42.726;23.252;2023-05-09T05:07:45;95553.34;;;14.08;nan
9261;BME280;4667;42.726;23.252;2023-05-09T05:10:12;95551.78;;;14.11;nan
9261;BME280;4667;42.726;23.252;2023-05-09T05:12:42;95549.81;;;14.15;nan
9261;BME280;4667;42.726;23.252;2023-05-09T05:15:09;95546.63;;;14.20;nan
9261;BME280;4667;42.726;23.252;2023-05-09T05:17:36;95551.25;;;14.26;nan
9261;BME280;4667;42.726;23.252;2023-05-09T05:20:04;95548.13;;;14.28;nan
9261;BME280;4667;42.726;23.252;2023-05-09T05:22:32;95548.91;;;14.28;nan
9261;BME280;4667;42.726;23.252;2023-05-09T05:25:00;95553.47;;;14.42;nan
9261;BME280;4667;42.726;23.252;2023-05-09T05:27:27;95555.78;;;14.47;nan
9261;BME280;4667;42.726;23.252;2023-05-09T05:29:55;95551.34;;;14.60;nan
9261;BME280;4667;42.726;23.252;2023-05-09T05:32:22;95550.63;;;14.56;nan
9261;BME280;4667;42.726;23.252;2023-05-09T05:34:49;95554.91;;;14.57;nan
9261;BME280;4667;42.726;23.252;2023-05-09T05:37:16;95552.56;;;14.59;nan
9261;BME280;4667;42.726;23.252;2023-05-09T05:39:42;95552.47;;;14.66;nan
9261;BME280;4667;42.726;23.252;2023-05-09T05:42:09;95556.63;;;14.82;nan
9261;BME280;4667;42.726;23.252;2023-05-09T05:44:36;95557.47;;;14.75;nan
9261;BME280;4667;42.726;23.252;2023-05-09T05:47:04;95558.06;;;14.90;nan
9261;BME280;4667;42.726;23.252;2023-05-09T05:49:30;95553.00;;;14.92;nan
9261;BME280;4667;42.726;23.252;2023-05-09T05:51:57;95557.19;;;15.00;nan
9261;BME280;4667;42.726;23.252;2023-05-09T05:54:24;95564.53;;;15.06;nan
9261;BME280;4667;42.726;23.252;2023-05-09T05:56:51;95560.53;;;15.15;nan
9261;BME280;4667;42.726;23.252;2023-05-09T05:59:17;95561.06;;;15.36;nan
9261;BME280;4667;42.726;23.252;2023-05-09T06:01:44;95559.41;;;15.42;nan
9261;BME280;4667;42.726;23.252;2023-05-09T06:04:12;95560.84;;;15.54;nan
9261;BME280;4667;42.726;23.252;2023-05-09T06:06:39;95562.50;;;15.75;nan
9261;BME280;4667;42.726;23.252;2023-05-09T06:09:05;95565.19;;;15.78;nan
9261;BME280;4667;42.726;23.252;2023-05-09T06:11:32;95561.38;;;15.72;nan
9261;BME280;4667;42.726;23.252;2023-05-09T06:13:59;95563.91;;;15.60;nan
9261;BME280;4667;42.726;23.252;2023-05-09T06:16:26;95562.28;;;15.62;nan
9261;BME280;4667;42.726;23.252;2023-05-09T06:18:53;95563.44;;;15.65;nan
9261;BME280;4667;42.726;23.252;2023-05-09T06:21:21;95558.34;;;15.67;nan
9261;BME280;4667;42.726;23.252;2023-05-09T06:23:48;95560.34;;;15.63;nan
9261;BME280;4667;42.726;23.252;2023-05-09T06:26:14;95556.50;;;15.57;nan
9261;BME280;4667;42.726;23.252;2023-05-09T06:28:41;95558.06;;;15.58;nan
9261;BME280;4667;42.726;23.252;2023-05-09T06:31:08;95554.22;;;15.82;nan
9261;BME280;4667;42.726;23.252;2023-05-09T06:33:35;95561.38;;;15.72;nan
9261;BME280;4667;42.726;23.252;2023-05-09T06:36:02;95553.81;;;15.83;nan
9261;BME280;4667;42.726;23.252;2023-05-09T06:38:30;95553.28;;;15.92;nan
9261;BME280;4667;42.726;23.252;2023-05-09T06:40:56;95547.59;;;16.06;nan
9261;BME280;4667;42.726;23.252;2023-05-09T06:43:23;95544.91;;;16.29;nan
9261;BME280;4667;42.726;23.252;2023-05-09T06:45:50;95542.16;;;16.53;nan
9261;BME280;4667;42.726;23.252;2023-05-09T06:48:17;95538.94;;;16.58;nan
9261;BME280;4667;42.726;23.252;2023-05-09T06:50:44;95548.59;;;16.66;nan
9261;BME280;4667;42.726;23.252;2023-05-09T06:53:11;95558.56;;;16.53;nan
9261;BME280;4667;42.726;23.252;2023-05-09T06:55:39;95549.66;;;16.49;nan
9261;BME280;4667;42.726;23.252;2023-05-09T06:58:06;95544.88;;;16.76;nan
9261;BME280;4667;42.726;23.252;2023-05-09T07:00:33;95543.50;;;16.68;nan
9261;BME280;4667;42.726;23.252;2023-05-09T07:02:59;95542.06;;;16.60;nan
9261;BME280;4667;42.726;23.252;2023-05-09T07:05:26;95543.41;;;16.48;nan
9261;BME280;4667;42.726;23.252;2023-05-09T07:07:53;95529.78;;;16.45;nan
9261;BME280;4667;42.726;23.252;2023-05-09T07:10:21;95544.06;;;16.32;nan
9261;BME280;4667;42.726;23.252;2023-05-09T07:12:49;95534.84;;;16.23;nan
9261;BME280;4667;42.726;23.252;2023-05-09T07:15:16;95539.91;;;16.24;nan
9261;BME280;4667;42.726;23.252;2023-05-09T07:17:42;95541.31;;;16.09;nan
9261;BME280;4667;42.726;23.252;2023-05-09T07:20:09;95540.69;;;16.25;nan
9261;BME280;4667;42.726;23.252;2023-05-09T07:22:36;95537.84;;;16.32;nan
9261;BME280;4667;42.726;23.252;2023-05-09T07:25:05;95547.81;;;16.42;nan
9261;BME280;4667;42.726;23.252;2023-05-09T07:27:32;95548.50;;;16.46;nan
9261;BME280;4667;42.726;23.252;2023-05-09T07:30:00;95543.69;;;16.54;nan
9261;BME280;4667;42.726;23.252;2023-05-09T07:32:27;95543.16;;;16.39;nan
9261;BME280;4667;42.726;23.252;2023-05-09T07:34:54;95537.97;;;16.45;nan
9261;BME280;4667;42.726;23.252;2023-05-09T07:37:20;95547.31;;;16.24;nan
9261;BME280;4667;42.726;23.252;2023-05-09T07:39:47;95546.44;;;16.07;nan
9261;BME280;4667;42.726;23.252;2023-05-09T07:42:14;95546.91;;;16.02;nan
9261;BME280;4667;42.726;23.252;2023-05-09T07:44:41;95551.66;;;16.21;nan
9261;BME280;4667;42.726;23.252;2023-05-09T07:47:09;95547.03;;;16.18;nan
9261;BME280;4667;42.726;23.252;2023-05-09T07:49:36;95551.88;;;16.07;nan
9261;BME280;4667;42.726;23.252;2023-05-09T07:52:04;95562.72;;;16.14;nan
9261;BME280;4667;42.726;23.252;2023-05-09T07:54:31;95554.81;;;16.20;nan
9261;BME280;4667;42.726;23.252;2023-05-09T07:56:57;95555.13;;;15.99;nan
9261;BME280;4667;42.726;23.252;2023-05-09T07:59:24;95550.03;;;16.01;nan
9261;BME280;4667;42.726;23.252;2023-05-09T08:01:51;95553.75;;;15.87;nan
9261;BME280;4667;42.726;23.252;2023-05-09T08:04:20;95557.91;;;15.68;nan
9261;BME280;4667;42.726;23.252;2023-05-09T08:06:46;95548.91;;;15.71;nan
9261;BME280;4667;42.726;23.252;2023-05-09T08:09:13;95553.03;;;15.83;nan
9261;BME280;4667;42.726;23.252;2023-05-09T08:11:40;95548.91;;;15.71;nan
9261;BME280;4667;42.726;23.252;2023-05-09T08:14:07;95557.59;;;15.63;nan
9261;BME280;4667;42.726;23.252;2023-05-09T08:16:34;95552.63;;;15.84;nan
9261;BME280;4667;42.726;23.252;2023-05-09T08:19:01;95555.97;;;15.96;nan
9261;BME280;4667;42.726;23.252;2023-05-09T08:21:29;95552.50;;;16.18;nan
9261;BME280;4667;42.726;23.252;2023-05-09T08:23:56;95549.66;;;16.49;nan
9261;BME280;4667;42.726;23.252;2023-05-09T08:26:23;95546.84;;;16.52;nan
9261;BME280;4667;42.726;23.252;2023-05-09T08:28:51;95542.84;;;16.60;nan
9261;BME280;4667;42.726;23.252;2023-05-09T08:31:18;95555.34;;;16.58;nan
9261;BME280;4667;42.726;23.252;2023-05-09T08:33:45;95546.69;;;16.63;nan
9261;BME280;4667;42.726;23.252;2023-05-09T08:36:12;95542.88;;;16.80;nan
9261;BME280;4667;42.726;23.252;2023-05-09T08:38:40;95541.63;;;16.85;nan
9261;BME280;4667;42.726;23.252;2023-05-09T08:41:07;95547.88;;;16.85;nan
9261;BME280;4667;42.726;23.252;2023-05-09T08:43:34;95549.88;;;16.81;nan
9261;BME280;4667;42.726;23.252;2023-05-09T08:46:04;95539.13;;;16.70;nan
9261;BME280;4667;42.726;23.252;2023-05-09T08:48:33;95544.22;;;16.68;nan
9261;BME280;4667;42.726;23.252;2023-05-09T08:51:02;95553.34;;;16.85;nan
9261;BME280;4667;42.726;23.252;2023-05-09T08:53:29;95549.69;;;17.11;nan
9261;BME280;4667;42.726;23.252;2023-05-09T08:55:58;95539.94;;;17.10;nan
9261;BME280;4667;42.726;23.252;2023-05-09T08:58:48;95537.97;;;17.11;nan
9261;BME280;4667;42.726;23.252;2023-05-09T09:01:16;95542.44;;;17.61;nan
9261;BME280;4667;42.726;23.252;2023-05-09T09:03:59;95539.38;;;18.27;nan
9261;BME280;4667;42.726;23.252;2023-05-09T09:06:27;95539.19;;;18.50;nan
9261;BME280;4667;42.726;23.252;2023-05-09T09:08:57;95545.03;;;18.52;nan
9261;BME280;4667;42.726;23.252;2023-05-09T09:11:29;95540.81;;;18.48;nan
9261;BME280;4667;42.726;23.252;2023-05-09T09:14:00;95548.13;;;18.22;nan
9261;BME280;4667;42.726;23.252;2023-05-09T09:16:28;95533.88;;;18.43;nan
9261;BME280;4667;42.726;23.252;2023-05-09T09:18:57;95540.91;;;18.28;nan
9261;BME280;4667;42.726;23.252;2023-05-09T09:21:24;95540.53;;;18.42;nan
9261;BME280;4667;42.726;23.252;2023-05-09T09:23:53;95535.06;;;18.42;nan
9261;BME280;4667;42.726;23.252;2023-05-09T09:26:21;95537.91;;;18.55;nan
9261;BME280;4667;42.726;23.252;2023-05-09T09:28:50;95533.28;;;18.52;nan
9261;BME280;4667;42.726;23.252;2023-05-09T09:31:19;95531.41;;;18.65;nan
9261;BME280;4667;42.726;23.252;2023-05-09T09:33:46;95530.53;;;18.52;nan
9261;BME280;4667;42.726;23.252;2023-05-09T09:36:13;95537.38;;;18.44;nan
9261;BME280;4667;42.726;23.252;2023-05-09T09:38:41;95533.53;;;18.57;nan
9261;BME280;4667;42.726;23.252;2023-05-09T09:41:09;95533.50;;;18.41;nan
9261;BME280;4667;42.726;23.252;2023-05-09T09:43:36;95531.63;;;18.54;nan
9261;BME280;4667;42.726;23.252;2023-05-09T09:46:05;95533.09;;;18.75;nan
9261;BME280;4667;42.726;23.252;2023-05-09T09:48:35;95531.66;;;18.99;nan
9261;BME280;4667;42.726;23.252;2023-05-09T09:51:07;95526.78;;;18.91;nan
9261;BME280;4667;42.726;23.252;2023-05-09T09:53:38;95530.38;;;19.45;nan
9261;BME280;4667;42.726;23.252;2023-05-09T09:56:05;95532.81;;;19.56;nan
9261;BME280;4667;42.726;23.252;2023-05-09T09:58:32;95535.34;;;19.50;nan
9261;BME280;4667;42.726;23.252;2023-05-09T10:01:08;95531.94;;;19.59;nan
9261;BME280;4667;42.726;23.252;2023-05-09T10:03:38;95534.59;;;19.88;nan
9261;BME280;4667;42.726;23.252;2023-05-09T10:06:09;95525.03;;;20.43;nan
9261;BME280;4667;42.726;23.252;2023-05-09T10:08:36;95525.56;;;20.85;nan
9261;BME280;4667;42.726;23.252;2023-05-09T10:11:04;95522.88;;;20.94;nan
9261;BME280;4667;42.726;23.252;2023-05-09T10:26:16;95511.09;;;19.33;nan
9261;BME280;4667;42.726;23.252;2023-05-09T10:36:12;95498.78;;;18.67;nan
9261;BME280;4667;42.726;23.252;2023-05-09T11:06:50;95503.31;;;17.40;nan
9261;BME280;4667;42.726;23.252;2023-05-09T11:09:28;95514.41;;;16.97;nan
9261;BME280;4667;42.726;23.252;2023-05-09T11:12:11;95512.78;;;16.80;nan
9261;BME280;4667;42.726;23.252;2023-05-09T11:14:40;95506.88;;;17.01;nan
9261;BME280;4667;42.726;23.252;2023-05-09T11:17:10;95509.50;;;17.08;nan
9261;BME280;4667;42.726;23.252;2023-05-09T11:20:01;95512.25;;;17.44;nan
9261;BME280;4667;42.726;23.252;2023-05-09T11:22:38;95506.03;;;17.80;nan
9261;BME280;4667;42.726;23.252;2023-05-09T11:25:08;95500.97;;;18.27;nan
9261;BME280;4667;42.726;23.252;2023-05-09T11:27:38;95504.72;;;18.49;nan
9261;BME280;4667;42.726;23.252;2023-05-09T11:30:07;95504.22;;;18.70;nan
9261;BME280;4667;42.726;23.252;2023-05-09T11:32:41;95502.66;;;18.37;nan
9261;BME280;4667;42.726;23.252;2023-05-09T11:35:09;95500.22;;;18.71;nan
9261;BME280;4667;42.726;23.252;2023-05-09T11:37:44;95500.66;;;18.54;nan
9261;BME280;4667;42.726;23.252;2023-05-09T11:40:13;95499.88;;;18.86;nan
9261;BME280;4667;42.726;23.252;2023-05-09T11:42:42;95497.09;;;19.14;nan
9261;BME280;4667;42.726;23.252;2023-05-09T11:45:11;95501.59;;;19.50;nan
9261;BME280;4667;42.726;23.252;2023-05-09T11:59:58;95500.88;;;18.63;nan
9261;BME280;4667;42.726;23.252;2023-05-09T12:04:56;95496.28;;;18.72;nan
9261;BME280;4667;42.726;23.252;2023-05-09T12:07:24;95503.97;;;18.65;nan
9261;BME280;4667;42.726;23.252;2023-05-09T12:09:51;95499.66;;;18.64;nan
9261;BME280;4667;42.726;23.252;2023-05-09T12:34:27;95500.19;;;17.94;nan
9261;BME280;4667;42.726;23.252;2023-05-09T13:16:37;95472.44;;;16.84;nan
9261;BME280;4667;42.726;23.252;2023-05-09T13:19:04;95470.47;;;16.42;nan
9261;BME280;4667;42.726;23.252;2023-05-09T13:21:32;95474.19;;;16.51;nan
9261;BME280;4667;42.726;23.252;2023-05-09T13:24:02;95475.09;;;16.45;nan
9261;BME280;4667;42.726;23.252;2023-05-09T13:26:29;95478.44;;;16.09;nan
9261;BME280;4667;42.726;23.252;2023-05-09T13:28:56;95483.31;;;15.98;nan
9261;BME280;4667;42.726;23.252;2023-05-09T13:31:23;95484.09;;;15.99;nan
9261;BME280;4667;42.726;23.252;2023-05-09T13:33:50;95485.56;;;15.80;nan
9261;BME280;4667;42.726;23.252;2023-05-09T13:36:17;95485.53;;;15.57;nan
9261;BME280;4667;42.726;23.252;2023-05-09T13:38:45;95490.88;;;15.33;nan
9261;BME280;4667;42.726;23.252;2023-05-09T13:41:14;95489.53;;;15.18;nan
9261;BME280;4667;42.726;23.252;2023-05-09T13:43:47;95493.72;;;15.26;nan
9261;BME280;4667;42.726;23.252;2023-05-09T13:46:13;95494.53;;;14.93;nan
9261;BME280;4667;42.726;23.252;2023-05-09T13:48:40;95493.25;;;14.70;nan
9261;BME280;4667;42.726;23.252;2023-05-09T13:51:08;95495.25;;;14.63;nan
9261;BME280;4667;42.726;23.252;2023-05-09T13:53:35;95499.81;;;14.36;nan
9261;BME280;4667;42.726;23.252;2023-05-09T13:56:05;95499.72;;;14.46;nan
9261;BME280;4667;42.726;23.252;2023-05-09T13:58:33;95497.78;;;14.47;nan
9261;BME280;4667;42.726;23.252;2023-05-09T14:01:01;95499.78;;;14.39;nan
9261;BME280;4667;42.726;23.252;2023-05-09T14:03:28;95496.69;;;14.34;nan
9261;BME280;4667;42.726;23.252;2023-05-09T14:05:56;95497.91;;;14.29;nan
9261;BME280;4667;42.726;23.252;2023-05-09T14:08:23;95493.31;;;14.22;nan
9261;BME280;4667;42.726;23.252;2023-05-09T14:10:50;95484.75;;;14.20;nan
9261;BME280;4667;42.726;23.252;2023-05-09T14:13:21;95497.47;;;14.38;nan
9261;BME280;4667;42.726;23.252;2023-05-09T14:15:47;95494.41;;;14.28;nan
9261;BME280;4667;42.726;23.252;2023-05-09T14:18:14;95489.66;;;14.36;nan
9261;BME280;4667;42.726;23.252;2023-05-09T14:20:41;95485.25;;;14.53;nan
9261;BME280;4667;42.726;23.252;2023-05-09T14:23:08;95486.78;;;14.54;nan
9261;BME280;4667;42.726;23.252;2023-05-09T14:25:35;95481.69;;;14.56;nan
9261;BME280;4667;42.726;23.252;2023-05-09T14:28:02;95486.13;;;14.43;nan
9261;BME280;4667;42.726;23.252;2023-05-09T14:30:32;95488.53;;;14.34;nan
9261;BME280;4667;42.726;23.252;2023-05-09T14:32:59;95482.69;;;14.35;nan
9261;BME280;4667;42.726;23.252;2023-05-09T14:35:27;95482.75;;;14.24;nan
9261;BME280;4667;42.726;23.252;2023-05-09T14:37:57;95484.31;;;14.25;nan
9261;BME280;4667;42.726;23.252;2023-05-09T14:40:24;95486.69;;;14.23;nan
9261;BME280;4667;42.726;23.252;2023-05-09T14:42:56;95488.66;;;14.19;nan
9261;BME280;4667;42.726;23.252;2023-05-09T14:45:23;95491.34;;;14.23;nan
9261;BME280;4667;42.726;23.252;2023-05-09T14:47:51;95484.81;;;14.13;nan
9261;BME280;4667;42.726;23.252;2023-05-09T14:50:18;95492.91;;;14.24;nan
9261;BME280;4667;42.726;23.252;2023-05-09T14:52:47;95487.34;;;14.38;nan
9261;BME280;4667;42.726;23.252;2023-05-09T14:55:15;95494.34;;;14.39;nan
9261;BME280;4667;42.726;23.252;2023-05-09T14:57:42;95493.56;;;14.39;nan
9261;BME280;4667;42.726;23.252;2023-05-09T15:00:10;95490.47;;;14.33;nan
9261;BME280;4667;42.726;23.252;2023-05-09T15:02:37;95490.06;;;14.35;nan
9261;BME280;4667;42.726;23.252;2023-05-09T15:05:12;95490.91;;;14.28;nan
9261;BME280;4667;42.726;23.252;2023-05-09T15:07:39;95488.53;;;14.34;nan
9261;BME280;4667;42.726;23.252;2023-05-09T15:10:06;95483.63;;;14.18;nan
9261;BME280;4667;42.726;23.252;2023-05-09T15:12:33;95490.59;;;14.19;nan
9261;BME280;4667;42.726;23.252;2023-05-09T15:15:12;95485.31;;;14.01;nan
9261;BME280;4667;42.726;23.252;2023-05-09T15:17:39;95482.22;;;13.99;nan
9261;BME280;4667;42.726;23.252;2023-05-09T15:20:08;95493.56;;;13.90;nan
9261;BME280;4667;42.726;23.252;2023-05-09T15:22:36;95488.19;;;13.83;nan
9261;BME280;4667;42.726;23.252;2023-05-09T15:25:03;95492.59;;;13.67;nan
9261;BME280;4667;42.726;23.252;2023-05-09T15:27:30;95490.63;;;13.67;nan
9261;BME280;4667;42.726;23.252;2023-05-09T15:29:57;95489.47;;;13.68;nan
9261;BME280;4667;42.726;23.252;2023-05-09T15:32:24;95495.72;;;13.62;nan
9261;BME280;4667;42.726;23.252;2023-05-09T15:34:51;95491.50;;;13.54;nan
9261;BME280;4667;42.726;23.252;2023-05-09T15:37:19;95491.91;;;13.52;nan
9261;BME280;4667;42.726;23.252;2023-05-09T15:39:46;95488.03;;;13.49;nan
9261;BME280;4667;42.726;23.252;2023-05-09T15:42:16;95490.75;;;13.49;nan
9261;BME280;4667;42.726;23.252;2023-05-09T15:44:44;95493.53;;;13.46;nan